Terminal Aerodrome Forecast
Issued by NWS Omaha/Valley, NE

Home | Current Version | Previous Version | Graphics & Text | Print | Product List | Glossary On
Versions: 1 2 3 4 5 6 7 8 9 10 11 12 13 14
000
FTUS43 KOAX 250948 AAA
TAFOFK
TAF AMD
KOFK 250948Z 2510/2606 16013KT P6SM VCSH SCT080
     FM251300 18016G23KT P6SM BKN150
     FM252000 20011KT P6SM SCT050 OVC100=

USA.gov is the U.S. government's official web portal to all federal, state and local government web resources and services.